Time;durP1;ratioP1;P1;durP2;ratioP2;P2;SDS_P1;SDS_P2;PMS_P1;PMS_P2;Temp;Humidity;BMP_temperature;BMP_pressure;BME280_temperature;BME280_humidity;BME280_pressure;Samples;Min_cycle;Max_cycle;Signal;HPM_P1;HPM_P2
2023/11/05 00:01:04;;;;;;;29.40;14.00;;;;;;;13.51;89.08;99363.04;107620;1254;108472;-58
2023/11/05 00:03:49;;;;;;;24.50;13.50;;;;;;;13.53;89.27;99357.75;107583;1251;99166;-59
2023/11/05 00:06:18;;;;;;;18.00;11.40;;;;;;;13.54;89.20;99359.99;107602;1253;99710;-59
2023/11/05 00:08:46;;;;;;;17.70;12.30;;;;;;;13.52;88.87;99361.70;107521;1253;113034;-59
2023/11/05 00:11:15;;;;;;;25.80;12.10;;;;;;;13.49;88.83;99366.35;107551;1252;109670;-58
2023/11/05 00:13:43;;;;;;;15.90;11.50;;;;;;;13.48;88.78;99367.41;107596;1253;108225;-60
2023/11/05 00:16:12;;;;;;;19.90;11.20;;;;;;;13.47;88.53;99368.94;107522;1253;99218;-59
2023/11/05 00:18:41;;;;;;;24.10;11.30;;;;;;;13.46;88.44;99371.20;107733;1251;99355;-59
2023/11/05 00:21:09;;;;;;;17.70;11.50;;;;;;;13.44;88.22;99375.19;107645;1251;113029;-59
2023/11/05 00:23:37;;;;;;;17.20;11.10;;;;;;;13.41;88.29;99376.51;107481;1253;108986;-59
2023/11/05 00:26:06;;;;;;;19.80;11.90;;;;;;;13.35;88.02;99381.65;107545;1253;107358;-60
2023/11/05 00:28:34;;;;;;;24.80;12.60;;;;;;;13.33;88.20;99387.39;107621;1254;99183;-59
2023/11/05 00:31:03;;;;;;;16.40;11.60;;;;;;;13.28;88.07;99391.49;107578;1253;99059;-59
2023/11/05 00:33:32;;;;;;;15.70;11.30;;;;;;;13.22;87.90;99397.67;107613;1253;113491;-59
2023/11/05 00:36:00;;;;;;;19.10;11.30;;;;;;;13.18;87.89;99405.02;107579;1256;108580;-59
2023/11/05 00:38:28;;;;;;;20.30;11.80;;;;;;;13.13;87.97;99408.66;107487;1253;107492;-58
2023/11/05 00:40:57;;;;;;;27.70;12.90;;;;;;;13.08;87.88;99413.19;107532;1251;99931;-61
2023/11/05 00:43:25;;;;;;;18.10;11.80;;;;;;;13.05;88.32;99419.92;107646;1252;99128;-58
2023/11/05 00:45:54;;;;;;;18.60;11.70;;;;;;;13.01;88.39;99428.51;107554;1253;112683;-60
2023/11/05 00:48:22;;;;;;;18.50;12.30;;;;;;;12.97;88.39;99430.15;107620;1253;109804;-58
2023/11/05 00:50:51;;;;;;;18.30;11.60;;;;;;;12.94;88.16;99430.72;107533;1255;108526;-58
2023/11/05 00:53:19;;;;;;;13.50;8.30;;;;;;;12.88;87.81;99430.86;107619;1251;99284;-61
2023/11/05 00:55:47;;;;;;;12.70;8.60;;;;;;;12.81;87.57;99433.18;107560;1251;99064;-60
2023/11/05 00:58:15;;;;;;;18.30;10.90;;;;;;;12.76;87.37;99434.17;107696;1250;114162;-59
2023/11/05 01:00:44;;;;;;;23.50;10.90;;;;;;;12.72;87.45;99436.23;107648;1251;109965;-59
2023/11/05 01:03:13;;;;;;;19.00;11.00;;;;;;;12.70;87.42;99442.44;107406;1253;108599;-59
2023/11/05 01:05:42;;;;;;;17.90;10.80;;;;;;;12.67;87.53;99453.73;107563;1253;99229;-59
2023/11/05 01:08:10;;;;;;;20.30;12.10;;;;;;;12.66;87.62;99455.25;107595;1251;99166;-60
2023/11/05 01:10:38;;;;;;;18.10;10.50;;;;;;;12.66;87.80;99457.07;107626;1251;112523;-60
2023/11/05 01:13:07;;;;;;;20.50;11.40;;;;;;;12.65;87.84;99456.09;107627;1250;109911;-61
2023/11/05 01:15:35;;;;;;;17.20;10.80;;;;;;;12.64;87.73;99455.86;107557;1252;106980;-58
2023/11/05 01:18:03;;;;;;;15.70;9.20;;;;;;;12.63;87.82;99462.86;107498;1253;99294;-59
2023/11/05 01:20:33;;;;;;;17.90;9.70;;;;;;;12.59;87.58;99466.49;107577;1251;99206;-58
2023/11/05 01:23:02;;;;;;;18.20;10.30;;;;;;;12.57;87.67;99468.20;107620;1251;112816;-59
2023/11/05 01:25:31;;;;;;;23.50;10.50;;;;;;;12.53;87.53;99468.98;107631;1253;109770;-59
2023/11/05 01:28:00;;;;;;;20.10;9.70;;;;;;;12.47;87.28;99470.04;107579;1251;108728;-58
2023/11/05 01:30:28;;;;;;;20.40;10.40;;;;;;;12.42;87.31;99471.63;107472;1253;99067;-58
2023/11/05 01:32:56;;;;;;;14.50;9.80;;;;;;;12.37;87.28;99475.20;107542;1253;99129;-58
2023/11/05 01:35:25;;;;;;;15.50;10.30;;;;;;;12.31;87.22;99473.52;107547;1253;113146;-58
2023/11/05 01:37:53;;;;;;;14.60;9.40;;;;;;;12.26;87.32;99475.02;107521;1253;109507;-58
2023/11/05 01:40:22;;;;;;;20.10;9.40;;;;;;;12.22;87.04;99479.15;107595;1253;108226;-60
2023/11/05 01:42:52;;;;;;;16.20;9.40;;;;;;;12.12;86.47;99486.15;107508;1251;99200;-58
2023/11/05 01:45:20;;;;;;;11.80;9.40;;;;;;;12.05;86.77;99493.23;107554;1255;99695;-60
2023/11/05 01:47:50;;;;;;;15.80;9.50;;;;;;;12.00;86.93;99493.70;107557;1253;112290;-59
2023/11/05 01:50:21;;;;;;;15.70;8.40;;;;;;;11.96;87.04;99498.39;107541;1255;109308;-59
2023/11/05 01:52:54;;;;;;;11.90;7.70;;;;;;;11.92;86.94;99499.20;107564;1251;108557;-60
2023/11/05 01:55:25;;;;;;;13.90;8.00;;;;;;;11.87;86.78;99503.74;107619;1253;99980;-57
2023/11/05 01:57:54;;;;;;;12.30;7.70;;;;;;;11.80;86.48;99506.09;107595;1253;99119;-57
2023/11/05 02:00:22;;;;;;;9.40;7.20;;;;;;;11.70;86.01;99515.54;107585;1256;113665;-58
2023/11/05 02:02:51;;;;;;;10.00;7.10;;;;;;;11.60;85.97;99523.66;107641;1252;110279;-59
2023/11/05 02:05:20;;;;;;;12.00;6.90;;;;;;;11.55;85.94;99531.70;107509;1253;107895;-59
2023/11/05 02:07:49;;;;;;;11.40;7.60;;;;;;;11.50;85.87;99540.45;107657;1251;99198;-57
2023/11/05 02:10:17;;;;;;;9.10;6.50;;;;;;;11.44;85.98;99547.13;107614;1256;99300;-60
2023/11/05 02:12:59;;;;;;;10.30;7.00;;;;;;;11.40;86.19;99546.16;107533;1253;111632;-59
2023/11/05 02:15:28;;;;;;;14.10;7.20;;;;;;;11.35;86.21;99547.27;107583;1252;109875;-60
2023/11/05 02:17:57;;;;;;;6.20;3.70;;;;;;;11.33;86.37;99556.48;107482;1252;107433;-60
2023/11/05 02:20:26;;;;;;;13.30;5.70;;;;;;;11.30;86.27;99562.51;107530;1253;99253;-59
2023/11/05 02:22:56;;;;;;;6.10;3.70;;;;;;;11.27;86.06;99568.77;107586;1253;99065;-59
2023/11/05 02:25:24;;;;;;;7.90;3.90;;;;;;;11.24;85.68;99569.45;107513;1253;113303;-60
2023/11/05 02:27:52;;;;;;;8.20;4.60;;;;;;;11.22;85.90;99571.33;107582;1253;108970;-58
2023/11/05 02:30:24;;;;;;;4.70;3.30;;;;;;;11.19;85.78;99571.57;107531;1256;108416;-58
2023/11/05 02:32:55;;;;;;;5.60;3.80;;;;;;;11.16;85.67;99571.90;107472;1253;99815;-58
2023/11/05 02:35:23;;;;;;;6.50;3.60;;;;;;;11.14;85.64;99573.98;107523;1255;99055;-59
2023/11/05 02:37:52;;;;;;;6.80;3.30;;;;;;;11.13;85.52;99576.63;107579;1251;113188;-61
2023/11/05 02:40:20;;;;;;;5.30;3.90;;;;;;;11.11;85.22;99573.23;107580;1255;109912;-59
2023/11/05 02:42:48;;;;;;;6.60;3.50;;;;;;;11.10;85.35;99576.19;107575;1253;108858;-60
2023/11/05 02:45:17;;;;;;;5.10;3.20;;;;;;;11.10;85.24;99576.94;107621;1251;99027;-59
2023/11/05 02:47:46;;;;;;;7.40;4.40;;;;;;;11.09;85.12;99579.01;107616;1250;99822;-59
2023/11/05 02:50:15;;;;;;;7.50;4.20;;;;;;;11.08;85.05;99585.98;107594;1251;113627;-57
2023/11/05 02:52:43;;;;;;;7.60;4.20;;;;;;;11.07;85.15;99590.56;107520;1251;109027;-59
2023/11/05 02:55:11;;;;;;;12.30;4.10;;;;;;;11.05;85.26;99588.98;107530;1253;108013;-59
2023/11/05 02:57:40;;;;;;;7.50;3.50;;;;;;;11.01;85.04;99590.83;107626;1251;99208;-59
2023/11/05 03:00:13;;;;;;;11.40;3.70;;;;;;;10.96;85.03;99595.30;107639;1250;99815;-58
2023/11/05 03:02:42;;;;;;;8.20;3.80;;;;;;;10.91;84.91;99589.75;107587;1253;112616;-59
2023/11/05 03:05:10;;;;;;;8.10;3.30;;;;;;;10.86;85.06;99589.58;107417;1253;110095;-58
2023/11/05 03:07:39;;;;;;;7.30;3.50;;;;;;;10.81;84.84;99592.77;107479;1253;108081;-59
2023/11/05 03:10:08;;;;;;;4.70;3.50;;;;;;;10.74;84.75;99598.71;107488;1253;99188;-58
2023/11/05 03:12:36;;;;;;;9.40;3.80;;;;;;;10.66;84.54;99602.97;107466;1253;99737;-58
2023/11/05 03:15:05;;;;;;;9.70;3.70;;;;;;;10.61;84.70;99609.28;107487;1253;113375;-59
2023/11/05 03:17:36;;;;;;;8.10;3.20;;;;;;;10.58;84.85;99611.63;107543;1253;108853;-59
2023/11/05 03:20:09;;;;;;;6.50;3.70;;;;;;;10.53;84.90;99609.60;107501;1251;108243;-59
2023/11/05 03:22:37;;;;;;;8.80;3.50;;;;;;;10.46;84.52;99613.94;107515;1255;99200;-59
2023/11/05 03:25:07;;;;;;;9.90;3.80;;;;;;;10.37;84.56;99621.85;107527;1253;99096;-60
2023/11/05 03:27:36;;;;;;;6.20;3.60;;;;;;;10.31;84.71;99624.23;107562;1253;113267;-57
2023/11/05 03:30:07;;;;;;;6.60;4.30;;;;;;;10.28;84.95;99617.46;107554;1253;109021;-58
2023/11/05 03:32:35;;;;;;;8.00;3.80;;;;;;;10.26;85.07;99624.81;107550;1253;107369;-58
2023/11/05 03:35:05;;;;;;;5.60;3.60;;;;;;;10.25;85.32;99628.14;107492;1252;99185;-59
2023/11/05 03:37:33;;;;;;;10.40;3.70;;;;;;;10.22;85.20;99632.55;107597;1253;100318;-63
2023/11/05 03:40:03;;;;;;;4.60;3.00;;;;;;;10.18;84.94;99632.84;107547;1251;113121;-58
2023/11/05 03:42:31;;;;;;;8.70;3.20;;;;;;;10.08;84.56;99638.88;107663;1253;107837;-58
2023/11/05 03:45:00;;;;;;;7.60;3.40;;;;;;;10.00;84.61;99638.27;107541;1253;107074;-61
2023/11/05 03:47:28;;;;;;;8.40;3.70;;;;;;;9.95;84.80;99642.74;107556;1253;99047;-57
2023/11/05 03:49:57;;;;;;;5.30;3.40;;;;;;;9.89;84.93;99645.44;107526;1255;99189;-60
2023/11/05 03:52:31;;;;;;;7.90;3.70;;;;;;;9.86;85.12;99652.38;107544;1254;112618;-60
2023/11/05 03:54:59;;;;;;;9.10;3.70;;;;;;;9.83;85.33;99656.08;107536;1255;108708;-59
2023/11/05 03:57:28;;;;;;;6.80;3.50;;;;;;;9.81;85.25;99658.45;107514;1254;107637;-58
2023/11/05 03:59:57;;;;;;;6.00;3.20;;;;;;;9.78;85.35;99651.62;107559;1254;99176;-59
2023/11/05 04:02:25;;;;;;;12.50;3.90;;;;;;;9.75;85.25;99654.02;107594;1256;99166;-63
2023/11/05 04:04:54;;;;;;;5.20;3.30;;;;;;;9.72;85.41;99654.58;107611;1252;113117;-59
2023/11/05 04:07:22;;;;;;;3.70;3.10;;;;;;;9.69;85.33;99658.02;107658;1251;109777;-59
2023/11/05 04:09:51;;;;;;;6.50;3.70;;;;;;;9.67;85.32;99656.86;107561;1256;107312;-59
2023/11/05 04:12:19;;;;;;;5.60;3.00;;;;;;;9.64;85.32;99659.45;107532;1253;99173;-58
2023/11/05 04:14:48;;;;;;;14.50;3.80;;;;;;;9.61;85.23;99665.18;107648;1254;99182;-59
2023/11/05 04:17:16;;;;;;;4.50;3.20;;;;;;;9.56;84.97;99667.86;107624;1251;112232;-58
2023/11/05 04:19:44;;;;;;;7.70;3.70;;;;;;;9.52;85.12;99668.80;107550;1253;110002;-59
2023/11/05 04:22:12;;;;;;;3.80;3.30;;;;;;;9.49;85.17;99672.46;107551;1255;108860;-59
2023/11/05 04:24:41;;;;;;;5.10;3.60;;;;;;;9.48;85.35;99674.54;107597;1251;99647;-59
2023/11/05 04:27:09;;;;;;;4.80;3.80;;;;;;;9.46;85.26;99677.77;107621;1255;99068;-62
2023/11/05 04:29:38;;;;;;;7.30;4.00;;;;;;;9.44;85.42;99677.40;107569;1253;113605;-58
2023/11/05 04:32:07;;;;;;;5.90;3.40;;;;;;;9.44;85.37;99680.18;107538;1253;110022;-59
2023/11/05 04:34:37;;;;;;;5.40;3.80;;;;;;;9.39;85.21;99676.09;107557;1253;108247;-60
2023/11/05 04:37:06;;;;;;;8.60;3.90;;;;;;;9.32;84.95;99669.13;107548;1254;99173;-60
2023/11/05 04:39:34;;;;;;;8.20;4.20;;;;;;;9.31;85.17;99675.38;107599;1253;99169;-59
2023/11/05 04:42:06;;;;;;;8.70;3.90;;;;;;;9.27;85.30;99677.70;107560;1253;113601;-60
2023/11/05 04:44:36;;;;;;;5.10;3.70;;;;;;;9.26;85.44;99674.44;107571;1254;109750;-58
2023/11/05 04:47:05;;;;;;;4.70;3.80;;;;;;;9.25;85.30;99681.17;107566;1253;108505;-59
2023/11/05 04:49:33;;;;;;;4.70;3.50;;;;;;;9.22;85.42;99684.60;107560;1251;99259;-59
2023/11/05 04:52:04;;;;;;;7.60;3.20;;;;;;;9.20;85.35;99693.25;107589;1256;99084;-59
2023/11/05 04:54:32;;;;;;;5.70;3.00;;;;;;;9.16;85.37;99701.71;107576;1253;112160;-59
2023/11/05 04:57:00;;;;;;;5.40;3.30;;;;;;;9.13;85.36;99708.13;107576;1255;108899;-60
2023/11/05 04:59:29;;;;;;;9.00;4.10;;;;;;;9.11;85.39;99707.23;107562;1254;107100;-59
2023/11/05 05:01:58;;;;;;;8.70;4.10;;;;;;;9.08;85.42;99710.58;107556;1253;99173;-58
2023/11/05 05:04:27;;;;;;;8.00;4.00;;;;;;;9.03;85.44;99717.67;107604;1253;99181;-61
2023/11/05 05:06:55;;;;;;;6.00;3.60;;;;;;;9.01;85.70;99720.71;107568;1255;112807;-59
2023/11/05 05:09:23;;;;;;;8.80;4.30;;;;;;;8.92;85.25;99722.27;107569;1254;109392;-59
2023/11/05 05:11:52;;;;;;;6.40;3.40;;;;;;;8.87;85.20;99725.45;107564;1254;108451;-59
2023/11/05 05:14:20;;;;;;;8.70;3.90;;;;;;;8.86;85.55;99723.98;107520;1252;99388;-58
2023/11/05 05:16:48;;;;;;;5.40;3.70;;;;;;;8.83;85.36;99725.20;107583;1252;99727;-66
2023/11/05 05:19:16;;;;;;;6.90;3.40;;;;;;;8.84;85.65;99725.11;107559;1255;113396;-60
2023/11/05 05:21:46;;;;;;;5.10;3.70;;;;;;;8.86;85.79;99723.95;107614;1251;109306;-58
2023/11/05 05:24:15;;;;;;;7.80;3.30;;;;;;;8.87;85.85;99725.27;107606;1255;108278;-58
2023/11/05 05:26:43;;;;;;;6.40;3.70;;;;;;;8.83;85.25;99738.54;107559;1253;99284;-59
2023/11/05 05:29:12;;;;;;;17.60;3.70;;;;;;;8.81;85.28;99744.98;107545;1251;99155;-59
2023/11/05 05:31:41;;;;;;;6.50;4.00;;;;;;;8.82;85.51;99751.16;107540;1253;113557;-59
2023/11/05 05:34:09;;;;;;;9.20;3.60;;;;;;;8.86;85.78;99758.33;107559;1253;109724;-59
2023/11/05 05:36:40;;;;;;;5.10;2.90;;;;;;;8.90;86.11;99753.23;107566;1254;108187;-59
2023/11/05 05:39:08;;;;;;;6.50;3.00;;;;;;;8.90;85.94;99750.21;107564;1254;99181;-58
2023/11/05 05:41:37;;;;;;;10.40;7.10;;;;;;;8.90;85.98;99752.67;107644;1254;99102;-58
2023/11/05 05:44:06;;;;;;;6.50;4.20;;;;;;;8.94;86.16;99744.32;107559;1255;112052;-59
2023/11/05 05:46:34;;;;;;;6.10;3.90;;;;;;;8.97;86.22;99745.65;107538;1255;108989;-58
2023/11/05 05:49:03;;;;;;;7.40;3.90;;;;;;;9.00;86.15;99744.45;107565;1254;107405;-59
2023/11/05 05:51:32;;;;;;;5.60;3.70;;;;;;;9.02;86.24;99748.13;107557;1254;99206;-60
2023/11/05 05:54:00;;;;;;;7.40;3.80;;;;;;;9.06;86.28;99747.56;107602;1256;99789;-58
2023/11/05 05:56:28;;;;;;;5.10;3.70;;;;;;;9.10;86.41;99752.03;107602;1251;114316;-59
2023/11/05 05:58:57;;;;;;;6.00;3.80;;;;;;;9.16;86.57;99750.96;107584;1256;109525;-60
2023/11/05 06:01:25;;;;;;;8.60;3.50;;;;;;;9.21;86.48;99749.66;107563;1256;107885;-60
2023/11/05 06:03:54;;;;;;;5.40;3.30;;;;;;;9.30;86.67;99740.36;107595;1255;99188;-59
2023/11/05 06:06:24;;;;;;;9.80;4.10;;;;;;;9.46;86.78;99732.58;107556;1257;99690;-59
2023/11/05 06:08:53;;;;;;;5.90;3.30;;;;;;;9.54;86.52;99732.80;107597;1251;112531;-58
2023/11/05 06:11:21;;;;;;;6.70;3.30;;;;;;;9.60;86.54;99736.92;107594;1251;109919;-61
2023/11/05 06:13:50;;;;;;;7.80;4.60;;;;;;;9.61;86.29;99741.30;107551;1251;107555;-58
2023/11/05 06:16:18;;;;;;;6.80;4.00;;;;;;;9.65;86.55;99747.67;107554;1256;99295;-57
2023/11/05 06:18:46;;;;;;;4.60;4.20;;;;;;;9.68;86.64;99750.86;107557;1255;99081;-58
2023/11/05 06:21:14;;;;;;;10.50;4.90;;;;;;;9.76;86.97;99751.17;107621;1254;111370;-58
2023/11/05 06:23:42;;;;;;;9.30;4.70;;;;;;;9.83;87.05;99748.14;107570;1254;109546;-58
2023/11/05 06:26:10;;;;;;;9.00;4.40;;;;;;;9.91;87.20;99745.19;107565;1253;107415;-59
2023/11/05 06:28:39;;;;;;;6.20;4.40;;;;;;;9.98;87.11;99750.00;107557;1251;99259;-59
2023/11/05 06:31:07;;;;;;;7.80;4.30;;;;;;;10.06;87.21;99747.23;107597;1253;99183;-58
2023/11/05 06:33:35;;;;;;;5.60;3.70;;;;;;;10.17;87.60;99750.65;107608;1255;113097;-60
2023/11/05 06:36:04;;;;;;;8.80;4.40;;;;;;;10.28;87.67;99753.81;107589;1253;108634;-59
2023/11/05 06:38:32;;;;;;;6.30;3.80;;;;;;;10.36;87.58;99749.72;107551;1252;108586;-58
2023/11/05 06:41:00;;;;;;;8.70;4.30;;;;;;;10.42;87.17;99750.94;107563;1254;99222;-60
2023/11/05 06:43:29;;;;;;;5.10;3.90;;;;;;;10.50;87.33;99749.96;107590;1252;99529;-58
2023/11/05 06:45:58;;;;;;;8.00;4.40;;;;;;;10.61;87.43;99753.83;107617;1253;112889;-58
2023/11/05 06:48:27;;;;;;;10.10;4.50;;;;;;;10.71;87.36;99761.07;107627;1255;110966;-58
2023/11/05 06:50:55;;;;;;;11.10;4.50;;;;;;;10.82;87.53;99758.05;107579;1251;108102;-60
2023/11/05 06:53:24;;;;;;;5.40;3.90;;;;;;;10.95;87.87;99758.09;107553;1251;99176;-58
2023/11/05 06:55:52;;;;;;;8.00;3.60;;;;;;;11.08;87.91;99756.08;107453;1253;99265;-58
2023/11/05 06:58:20;;;;;;;8.30;4.50;;;;;;;11.21;88.15;99749.80;107584;1255;113502;-60
2023/11/05 07:00:49;;;;;;;5.10;4.20;;;;;;;11.33;88.38;99750.11;107599;1251;109930;-58
2023/11/05 07:03:23;;;;;;;7.90;4.80;;;;;;;11.46;88.25;99745.32;107605;1251;108174;-60
2023/11/05 07:05:52;;;;;;;11.20;4.60;;;;;;;11.61;88.37;99750.02;107582;1254;99173;-61
2023/11/05 07:08:20;;;;;;;7.80;5.60;;;;;;;11.77;88.64;99755.40;107612;1253;99074;-58
2023/11/05 07:10:49;;;;;;;7.70;5.20;;;;;;;11.96;88.69;99753.91;107620;1251;112744;-58
2023/11/05 07:13:17;;;;;;;10.60;5.10;;;;;;;12.14;88.42;99750.67;107571;1251;109577;-57
2023/11/05 07:15:45;;;;;;;8.20;4.80;;;;;;;12.30;87.94;99746.56;107593;1251;107818;-58
2023/11/05 07:18:14;;;;;;;7.30;5.10;;;;;;;12.43;87.09;99734.52;107615;1251;99288;-59
2023/11/05 07:20:43;;;;;;;8.00;4.20;;;;;;;12.57;87.03;99727.92;107601;1251;99748;-59
2023/11/05 07:23:11;;;;;;;10.80;4.10;;;;;;;12.72;86.58;99723.29;107576;1251;113060;-59
2023/11/05 07:25:39;;;;;;;7.80;4.30;;;;;;;12.84;85.74;99729.08;107537;1251;108995;-59
2023/11/05 07:28:08;;;;;;;6.70;3.50;;;;;;;12.94;85.38;99733.17;107617;1251;108594;-58
2023/11/05 07:30:36;;;;;;;3.90;2.20;;;;;;;13.00;83.88;99734.16;107547;1251;99102;-59
2023/11/05 07:33:05;;;;;;;5.80;2.20;;;;;;;13.02;79.33;99733.41;107679;1251;99168;-59
2023/11/05 07:35:33;;;;;;;6.10;2.80;;;;;;;13.05;75.96;99732.67;107639;1251;111796;-60
2023/11/05 07:38:02;;;;;;;11.70;2.30;;;;;;;13.09;75.61;99726.48;107607;1251;109794;-59
2023/11/05 07:40:30;;;;;;;4.40;2.30;;;;;;;13.13;74.36;99721.08;107548;1256;107820;-59
2023/11/05 07:42:59;;;;;;;4.10;2.30;;;;;;;13.19;71.50;99722.51;107576;1254;99269;-58
2023/11/05 07:45:27;;;;;;;9.10;2.30;;;;;;;13.22;73.38;99718.47;107586;1256;99816;-58
2023/11/05 07:47:56;;;;;;;4.80;2.50;;;;;;;13.27;70.74;99728.22;107572;1253;113588;-58
2023/11/05 07:50:25;;;;;;;3.60;2.00;;;;;;;13.31;66.27;99723.57;107581;1254;109654;-58
2023/11/05 07:52:54;;;;;;;3.60;2.10;;;;;;;13.41;65.04;99721.49;107599;1256;108729;-59
2023/11/05 07:55:23;;;;;;;11.20;2.10;;;;;;;13.53;63.96;99717.98;107597;1255;99236;-59
2023/11/05 07:57:52;;;;;;;3.70;2.10;;;;;;;13.65;63.16;99708.65;107633;1251;99726;-58
2023/11/05 08:00:21;;;;;;;4.20;2.20;;;;;;;13.79;62.18;99709.20;107577;1252;113035;-59
2023/11/05 08:02:49;;;;;;;2.10;1.90;;;;;;;13.84;60.85;99710.95;107596;1254;109196;-59
2023/11/05 08:05:18;;;;;;;5.10;2.00;;;;;;;13.92;60.68;99708.73;107592;1251;108622;-59
2023/11/05 08:07:47;;;;;;;7.80;2.20;;;;;;;14.03;60.22;99707.57;107615;1251;99181;-59
2023/11/05 08:10:17;;;;;;;2.60;2.00;;;;;;;14.16;59.21;99700.23;107382;1251;99691;-59
2023/11/05 08:12:47;;;;;;;4.90;1.90;;;;;;;14.29;58.86;99685.35;107560;1257;112399;-58
2023/11/05 08:15:15;;;;;;;2.70;2.00;;;;;;;14.44;58.68;99679.41;107459;1254;108831;-60
2023/11/05 08:17:43;;;;;;;2.50;1.40;;;;;;;14.58;58.13;99674.21;107541;1251;108063;-60
2023/11/05 08:20:14;;;;;;;2.70;2.10;;;;;;;14.76;58.19;99669.85;107481;1253;99070;-60
2023/11/05 08:22:43;;;;;;;2.80;1.90;;;;;;;14.94;56.53;99666.17;107379;1251;99501;-59
2023/11/05 08:25:12;;;;;;;3.00;1.80;;;;;;;15.01;56.22;99665.89;107517;1256;112579;-59
2023/11/05 08:27:41;;;;;;;4.30;2.30;;;;;;;15.05;56.07;99665.23;107564;1251;107987;-58
2023/11/05 08:30:11;;;;;;;5.40;2.10;;;;;;;15.13;54.85;99660.97;107552;1251;107725;-59
2023/11/05 08:32:40;;;;;;;3.60;1.90;;;;;;;15.26;54.86;99653.19;107539;1251;99178;-59
2023/11/05 08:35:11;;;;;;;6.40;1.90;;;;;;;15.39;55.99;99642.21;107593;1251;99173;-61
2023/11/05 08:37:40;;;;;;;2.70;2.20;;;;;;;15.47;55.33;99645.83;107561;1250;112038;-59
2023/11/05 08:40:13;;;;;;;5.20;1.90;;;;;;;15.57;53.47;99646.98;107395;1251;108901;-60
2023/11/05 08:42:43;;;;;;;11.30;2.30;;;;;;;15.80;54.22;99650.20;107467;1254;107852;-59
2023/11/05 08:45:14;;;;;;;3.90;1.90;;;;;;;16.22;53.70;99652.77;107477;1251;99061;-60
2023/11/05 08:47:42;;;;;;;4.80;1.90;;;;;;;16.92;53.01;99656.09;107408;1251;99801;-60
2023/11/05 08:50:11;;;;;;;5.40;1.50;;;;;;;17.86;51.48;99648.38;107534;1251;113332;-60
2023/11/05 08:52:40;;;;;;;2.20;1.50;;;;;;;18.87;50.93;99643.80;107521;1251;109135;-59
2023/11/05 08:55:12;;;;;;;5.50;1.70;;;;;;;19.76;49.47;99640.13;107471;1251;108887;-59
2023/11/05 08:57:40;;;;;;;6.40;2.30;;;;;;;20.56;46.63;99645.38;107462;1251;99272;-58
2023/11/05 09:00:12;;;;;;;1.30;1.20;;;;;;;21.23;46.10;99640.17;107532;1251;99119;-61
2023/11/05 09:02:40;;;;;;;5.50;1.50;;;;;;;21.93;45.94;99631.80;107517;1250;112273;-63
2023/11/05 09:05:10;;;;;;;8.50;1.40;;;;;;;22.61;44.60;99625.88;107580;1251;110501;-60
2023/11/05 09:07:39;;;;;;;4.00;1.50;;;;;;;23.18;40.01;99627.23;107351;1253;107498;-60
2023/11/05 09:10:09;;;;;;;2.90;1.40;;;;;;;23.43;39.17;99624.91;107462;1256;99189;-60
2023/11/05 09:12:38;;;;;;;2.00;1.50;;;;;;;23.72;38.77;99618.61;107527;1251;99060;-61
2023/11/05 09:15:08;;;;;;;6.10;1.50;;;;;;;24.05;38.47;99604.71;107499;1256;113622;-61
2023/11/05 09:17:36;;;;;;;4.20;1.60;;;;;;;24.42;38.23;99595.93;107575;1251;109939;-63
2023/11/05 09:20:09;;;;;;;2.60;1.90;;;;;;;24.78;36.51;99578.05;107452;1251;108362;-61
2023/11/05 09:22:38;;;;;;;;;;;;;;;25.00;36.82;99572.91;107413;1253;99524;-61
2023/11/05 09:25:07;;;;;;;6.30;1.50;;;;;;;25.33;37.30;99574.90;107550;1251;99186;-61
2023/11/05 09:27:39;;;;;;;6.70;1.20;;;;;;;25.64;36.50;99569.39;107601;1251;112166;-62
2023/11/05 09:30:12;;;;;;;2.50;1.20;;;;;;;26.00;35.42;99565.68;107545;1251;111341;-62
2023/11/05 09:32:42;;;;;;;3.80;0.90;;;;;;;26.29;34.34;99564.95;107536;1255;108519;-61
2023/11/05 09:35:12;;;;;;;1.90;1.20;;;;;;;26.54;32.53;99560.39;107358;1251;99203;-63
2023/11/05 09:37:43;;;;;;;3.60;1.00;;;;;;;26.72;32.18;99559.44;107544;1251;99167;-61
2023/11/05 09:40:15;;;;;;;2.90;1.00;;;;;;;26.95;31.26;99550.70;107555;1251;113714;-61
2023/11/05 09:43:04;;;;;;;5.30;1.40;;;;;;;27.07;32.34;99552.80;107535;1251;109988;-62
2023/11/05 09:45:34;;;;;;;3.50;1.40;;;;;;;27.39;30.15;99551.30;107472;1251;107788;-61
2023/11/05 09:48:07;;;;;;;2.90;1.30;;;;;;;27.56;30.18;99540.74;107527;1253;99193;-61
2023/11/05 09:50:37;;;;;;;2.80;1.30;;;;;;;27.85;30.60;99532.15;107549;1251;99100;-63
2023/11/05 09:53:10;;;;;;;5.90;1.00;;;;;;;28.12;29.78;99524.33;107538;1254;112712;-62
2023/11/05 09:55:40;;;;;;;6.90;0.80;;;;;;;28.41;29.35;99526.00;107576;1251;108534;-60
2023/11/05 09:58:09;;;;;;;2.90;0.90;;;;;;;28.65;28.48;99518.48;107511;1251;107347;-60
2023/11/05 10:00:38;;;;;;;3.20;0.80;;;;;;;28.81;27.83;99511.58;107592;1250;100577;-63
2023/11/05 10:03:11;;;;;;;2.10;0.80;;;;;;;28.89;28.07;99504.10;107338;1254;99176;-61
2023/11/05 10:05:43;;;;;;;6.30;1.10;;;;;;;29.13;27.35;99497.36;107502;1251;111776;-62
2023/11/05 10:08:13;;;;;;;2.50;1.00;;;;;;;29.36;26.19;99490.79;107552;1251;108530;-62
2023/11/05 10:10:44;;;;;;;2.10;0.70;;;;;;;29.44;25.14;99489.88;107527;1251;108732;-62
2023/11/05 10:13:15;;;;;;;0.90;0.60;;;;;;;29.41;24.59;99484.92;107282;1251;99188;-60
2023/11/05 10:15:47;;;;;;;7.10;0.90;;;;;;;29.35;24.12;99482.87;107622;1254;99705;-62
2023/11/05 10:18:17;;;;;;;2.00;0.80;;;;;;;29.25;24.80;99472.42;107523;1253;113022;-61
2023/11/05 10:20:52;;;;;;;4.10;0.80;;;;;;;29.37;25.46;99457.54;107613;1251;108732;-63
2023/11/05 10:23:24;;;;;;;7.80;0.70;;;;;;;29.60;24.08;99457.06;107651;1251;108638;-62
2023/11/05 10:25:54;;;;;;;2.20;0.80;;;;;;;29.76;23.69;99455.91;107593;1251;99215;-61
2023/11/05 10:28:24;;;;;;;2.70;0.50;;;;;;;29.93;23.67;99457.25;107509;1251;99271;-61
2023/11/05 10:30:54;;;;;;;0.90;0.60;;;;;;;30.07;23.04;99442.66;107644;1255;112066;-61
2023/11/05 10:33:31;;;;;;;2.10;0.50;;;;;;;30.13;22.88;99435.98;107623;1254;109731;-60
2023/11/05 10:36:00;;;;;;;3.20;0.60;;;;;;;30.32;20.74;99429.92;107629;1253;108017;-62
2023/11/05 10:38:30;;;;;;;3.70;0.90;;;;;;;30.21;20.95;99423.61;107623;1253;99302;-61
2023/11/05 10:40:59;;;;;;;2.80;0.70;;;;;;;30.24;20.95;99426.27;107545;1254;99086;-61
2023/11/05 10:43:28;;;;;;;2.20;0.70;;;;;;;30.34;21.95;99426.07;107602;1253;113251;-61
2023/11/05 10:45:59;;;;;;;2.00;0.60;;;;;;;30.50;20.46;99429.94;107628;1253;109683;-63
2023/11/05 10:48:28;;;;;;;0.80;0.80;;;;;;;30.46;21.35;99411.13;107650;1253;108570;-62
2023/11/05 10:51:00;;;;;;;2.90;1.40;;;;;;;30.44;20.86;99420.75;107607;1254;99174;-62
2023/11/05 10:53:28;;;;;;;4.00;0.80;;;;;;;30.51;21.14;99420.60;107621;1252;99262;-61
2023/11/05 10:55:57;;;;;;;1.90;0.70;;;;;;;30.57;21.66;99419.96;107650;1254;112772;-62
2023/11/05 10:58:47;;;;;;;3.20;0.60;;;;;;;30.63;21.53;99419.07;107629;1251;109864;-60
2023/11/05 11:01:16;;;;;;;4.00;0.70;;;;;;;30.78;21.59;99408.39;107554;1254;107807;-62
2023/11/05 11:03:44;;;;;;;4.40;1.10;;;;;;;30.87;21.90;99393.84;107585;1253;99185;-60
2023/11/05 11:06:15;;;;;;;2.30;0.80;;;;;;;31.01;21.02;99395.63;107604;1252;99718;-62
2023/11/05 11:09:05;;;;;;;3.90;1.50;;;;;;;30.97;21.89;99396.17;107687;1254;113518;-61
2023/11/05 11:11:36;;;;;;;3.70;1.50;;;;;;;30.91;22.41;99398.83;107680;1253;108676;-62
2023/11/05 11:14:05;;;;;;;2.40;1.00;;;;;;;30.69;22.76;99398.60;107662;1253;108110;-62
2023/11/05 11:16:37;;;;;;;9.30;1.00;;;;;;;30.58;23.48;99393.25;107563;1252;99359;-62
2023/11/05 11:19:18;;;;;;;3.90;0.80;;;;;;;30.65;23.04;99397.02;107613;1253;99077;-62
2023/11/05 11:21:59;;;;;;;3.20;0.80;;;;;;;30.43;23.11;99399.90;107648;1251;113212;-63
2023/11/05 11:24:30;;;;;;;0.90;0.70;;;;;;;30.17;23.17;99399.42;107677;1251;108543;-64
2023/11/05 11:27:04;;;;;;;5.50;1.00;;;;;;;29.94;22.92;99402.69;107639;1256;108629;-62
2023/11/05 11:29:35;;;;;;;1.60;1.00;;;;;;;29.42;23.09;99394.75;107630;1254;99177;-62